sensor_id;sensor_type;location;lat;lon;timestamp;pressure;altitude;pressure_sealevel;temperature;humidity
44926;BME280;30662;51.210;7.656;2023-04-25T00:00:43;149944.97;;;4.54;100.00
44926;BME280;30662;51.210;7.656;2023-04-25T00:03:09;149953.81;;;4.58;100.00
44926;BME280;30662;51.210;7.656;2023-04-25T00:05:35;149946.22;;;4.55;100.00
44926;BME280;30662;51.210;7.656;2023-04-25T00:08:03;149967.66;;;4.63;100.00
44926;BME280;30662;51.210;7.656;2023-04-25T00:10:29;149937.44;;;4.51;100.00
44926;BME280;30662;51.210;7.656;2023-04-25T00:12:55;149958.84;;;4.60;100.00
44926;BME280;30662;51.210;7.656;2023-04-25T00:15:23;149933.66;;;4.50;100.00
44926;BME280;30662;51.210;7.656;2023-04-25T00:17:50;149917.28;;;4.43;100.00
44926;BME280;30662;51.210;7.656;2023-04-25T00:20:18;149928.59;;;4.48;100.00
44926;BME280;30662;51.210;7.656;2023-04-25T00:22:44;149927.31;;;4.47;100.00
44926;BME280;30662;51.210;7.656;2023-04-25T00:25:10;149943.72;;;4.54;100.00
44926;BME280;30662;51.210;7.656;2023-04-25T00:27:35;149965.13;;;4.62;100.00
44926;BME280;30662;51.210;7.656;2023-04-25T00:30:02;149938.69;;;4.52;100.00
44926;BME280;30662;51.210;7.656;2023-04-25T00:32:28;149946.22;;;4.55;100.00
44926;BME280;30662;51.210;7.656;2023-04-25T00:34:54;149934.91;;;4.50;100.00
44926;BME280;30662;51.210;7.656;2023-04-25T00:37:21;149961.38;;;4.61;100.00
44926;BME280;30662;51.210;7.656;2023-04-25T00:39:47;149943.72;;;4.54;100.00
44926;BME280;30662;51.210;7.656;2023-04-25T00:42:13;149932.41;;;4.49;100.00
44926;BME280;30662;51.210;7.656;2023-04-25T00:44:39;149917.28;;;4.43;100.00
44926;BME280;30662;51.210;7.656;2023-04-25T00:47:06;149858.03;;;4.19;100.00
44926;BME280;30662;51.210;7.656;2023-04-25T00:49:32;149890.78;;;4.32;100.00
44926;BME280;30662;51.210;7.656;2023-04-25T00:51:58;149861.84;;;4.21;100.00
44926;BME280;30662;51.210;7.656;2023-04-25T00:54:25;149811.44;;;4.00;100.00
44926;BME280;30662;51.210;7.656;2023-04-25T00:56:50;149817.72;;;4.03;100.00
44926;BME280;30662;51.210;7.656;2023-04-25T00:59:16;149853.00;;;4.17;100.00
44926;BME280;30662;51.210;7.656;2023-04-25T01:01:44;149873.16;;;4.25;100.00
44926;BME280;30662;51.210;7.656;2023-04-25T01:04:10;149840.38;;;4.12;100.00
44926;BME280;30662;51.210;7.656;2023-04-25T01:06:36;149879.47;;;4.28;100.00
44926;BME280;30662;51.210;7.656;2023-04-25T01:09:03;149879.47;;;4.28;100.00
44926;BME280;30662;51.210;7.656;2023-04-25T01:11:30;149905.91;;;4.38;100.00
44926;BME280;30662;51.210;7.656;2023-04-25T01:13:57;149893.31;;;4.33;100.00
44926;BME280;30662;51.210;7.656;2023-04-25T01:16:23;149892.03;;;4.33;100.00
44926;BME280;30662;51.210;7.656;2023-04-25T01:18:50;149904.66;;;4.38;100.00
44926;BME280;30662;51.210;7.656;2023-04-25T01:21:17;149947.47;;;4.55;100.00
44926;BME280;30662;51.210;7.656;2023-04-25T01:23:43;149917.28;;;4.43;100.00
44926;BME280;30662;51.210;7.656;2023-04-25T01:26:10;149938.69;;;4.52;100.00
44926;BME280;30662;51.210;7.656;2023-04-25T01:28:36;149914.75;;;4.42;100.00
44926;BME280;30662;51.210;7.656;2023-04-25T01:31:03;149903.41;;;4.37;100.00
44926;BME280;30662;51.210;7.656;2023-04-25T01:33:29;149912.19;;;4.41;100.00
44926;BME280;30662;51.210;7.656;2023-04-25T01:35:55;149900.88;;;4.36;100.00
44926;BME280;30662;51.210;7.656;2023-04-25T01:38:21;149929.84;;;4.48;100.00
44926;BME280;30662;51.210;7.656;2023-04-25T01:40:49;149932.41;;;4.49;100.00
44926;BME280;30662;51.210;7.656;2023-04-25T01:43:16;149951.31;;;4.57;100.00
44926;BME280;30662;51.210;7.656;2023-04-25T01:45:42;149936.19;;;4.51;100.00
44926;BME280;30662;51.210;7.656;2023-04-25T01:48:09;149939.94;;;4.52;100.00
44926;BME280;30662;51.210;7.656;2023-04-25T01:50:36;149933.66;;;4.50;100.00
44926;BME280;30662;51.210;7.656;2023-04-25T01:53:05;149927.31;;;4.47;100.00
44926;BME280;30662;51.210;7.656;2023-04-25T01:55:31;149987.84;;;4.72;100.00
44926;BME280;30662;51.210;7.656;2023-04-25T01:57:57;149961.38;;;4.61;100.00
44926;BME280;30662;51.210;7.656;2023-04-25T02:00:24;149939.94;;;4.52;100.00
44926;BME280;30662;51.210;7.656;2023-04-25T02:02:50;149966.38;;;4.63;100.00
44926;BME280;30662;51.210;7.656;2023-04-25T02:05:16;149955.06;;;4.58;100.00
44926;BME280;30662;51.210;7.656;2023-04-25T02:07:43;149956.34;;;4.59;100.00
44926;BME280;30662;51.210;7.656;2023-04-25T02:10:09;149972.72;;;4.65;100.00
44926;BME280;30662;51.210;7.656;2023-04-25T02:12:35;149942.47;;;4.53;100.00
44926;BME280;30662;51.210;7.656;2023-04-25T02:15:01;149941.19;;;4.53;100.00
44926;BME280;30662;51.210;7.656;2023-04-25T02:17:27;149947.47;;;4.55;100.00
44926;BME280;30662;51.210;7.656;2023-04-25T02:19:53;149961.38;;;4.61;100.00
44926;BME280;30662;51.210;7.656;2023-04-25T02:22:19;149951.31;;;4.57;100.00
44926;BME280;30662;51.210;7.656;2023-04-25T02:24:45;149934.91;;;4.50;100.00
44926;BME280;30662;51.210;7.656;2023-04-25T02:27:11;149929.84;;;4.48;100.00
44926;BME280;30662;51.210;7.656;2023-04-25T02:29:38;149914.75;;;4.42;100.00
44926;BME280;30662;51.210;7.656;2023-04-25T02:32:04;149936.19;;;4.51;100.00
44926;BME280;30662;51.210;7.656;2023-04-25T02:34:29;149979.00;;;4.68;100.00
44926;BME280;30662;51.210;7.656;2023-04-25T02:36:55;149947.47;;;4.55;100.00
44926;BME280;30662;51.210;7.656;2023-04-25T02:39:21;149967.66;;;4.63;100.00
44926;BME280;30662;51.210;7.656;2023-04-25T02:41:47;149976.50;;;4.67;100.00
44926;BME280;30662;51.210;7.656;2023-04-25T02:44:13;149931.09;;;4.49;100.00
44926;BME280;30662;51.210;7.656;2023-04-25T02:46:39;149921.03;;;4.45;100.00
44926;BME280;30662;51.210;7.656;2023-04-25T02:49:06;149973.97;;;4.66;100.00
44926;BME280;30662;51.210;7.656;2023-04-25T02:51:32;149912.19;;;4.41;100.00
44926;BME280;30662;51.210;7.656;2023-04-25T02:53:58;149955.06;;;4.58;100.00
44926;BME280;30662;51.210;7.656;2023-04-25T02:56:24;149924.81;;;4.46;100.00
44926;BME280;30662;51.210;7.656;2023-04-25T02:58:52;149907.19;;;4.39;100.00
44926;BME280;30662;51.210;7.656;2023-04-25T03:01:18;149931.09;;;4.49;100.00
44926;BME280;30662;51.210;7.656;2023-04-25T03:03:44;149937.44;;;4.51;100.00
44926;BME280;30662;51.210;7.656;2023-04-25T03:06:10;149924.81;;;4.46;100.00
44926;BME280;30662;51.210;7.656;2023-04-25T03:08:36;149875.66;;;4.26;100.00
44926;BME280;30662;51.210;7.656;2023-04-25T03:11:02;149908.44;;;4.39;100.00
44926;BME280;30662;51.210;7.656;2023-04-25T03:13:28;149885.75;;;4.30;100.00
44926;BME280;30662;51.210;7.656;2023-04-25T03:15:55;149890.78;;;4.32;100.00
44926;BME280;30662;51.210;7.656;2023-04-25T03:18:21;149892.03;;;4.33;100.00
44926;BME280;30662;51.210;7.656;2023-04-25T03:20:47;149922.31;;;4.45;100.00
44926;BME280;30662;51.210;7.656;2023-04-25T03:23:12;149916.03;;;4.42;100.00
44926;BME280;30662;51.210;7.656;2023-04-25T03:25:38;149923.56;;;4.46;100.00
44926;BME280;30662;51.210;7.656;2023-04-25T03:28:04;149897.13;;;4.35;100.00
44926;BME280;30662;51.210;7.656;2023-04-25T03:30:30;149904.66;;;4.38;100.00
44926;BME280;30662;51.210;7.656;2023-04-25T03:32:56;149878.19;;;4.27;100.00
44926;BME280;30662;51.210;7.656;2023-04-25T03:35:22;149842.94;;;4.13;100.00
44926;BME280;30662;51.210;7.656;2023-04-25T03:37:51;149837.88;;;4.11;100.00
44926;BME280;30662;51.210;7.656;2023-04-25T03:40:17;149842.94;;;4.13;100.00
44926;BME280;30662;51.210;7.656;2023-04-25T03:42:43;149851.75;;;4.17;100.00
44926;BME280;30662;51.210;7.656;2023-04-25T03:45:11;149860.59;;;4.20;100.00
44926;BME280;30662;51.210;7.656;2023-04-25T03:47:37;149900.88;;;4.36;100.00
44926;BME280;30662;51.210;7.656;2023-04-25T03:50:03;149888.28;;;4.31;100.00
44926;BME280;30662;51.210;7.656;2023-04-25T03:52:29;149887.03;;;4.31;100.00
44926;BME280;30662;51.210;7.656;2023-04-25T03:54:54;149917.28;;;4.43;100.00
44926;BME280;30662;51.210;7.656;2023-04-25T03:57:20;149907.19;;;4.39;100.00
44926;BME280;30662;51.210;7.656;2023-04-25T03:59:46;149913.47;;;4.41;100.00
44926;BME280;30662;51.210;7.656;2023-04-25T04:02:12;149919.78;;;4.44;100.00
44926;BME280;30662;51.210;7.656;2023-04-25T04:04:38;149917.28;;;4.43;100.00
44926;BME280;30662;51.210;7.656;2023-04-25T04:07:04;149917.28;;;4.43;100.00
44926;BME280;30662;51.210;7.656;2023-04-25T04:09:30;149932.41;;;4.49;100.00
44926;BME280;30662;51.210;7.656;2023-04-25T04:11:56;149912.19;;;4.41;100.00
44926;BME280;30662;51.210;7.656;2023-04-25T04:14:22;149913.47;;;4.41;100.00
44926;BME280;30662;51.210;7.656;2023-04-25T04:16:48;149885.75;;;4.30;100.00
44926;BME280;30662;51.210;7.656;2023-04-25T04:19:14;149845.47;;;4.14;100.00
44926;BME280;30662;51.210;7.656;2023-04-25T04:21:40;149851.75;;;4.17;100.00
44926;BME280;30662;51.210;7.656;2023-04-25T04:24:06;149837.88;;;4.11;100.00
44926;BME280;30662;51.210;7.656;2023-04-25T04:26:32;149811.44;;;4.00;100.00
44926;BME280;30662;51.210;7.656;2023-04-25T04:29:00;149835.34;;;4.10;100.00
44926;BME280;30662;51.210;7.656;2023-04-25T04:31:25;149851.75;;;4.17;100.00
44926;BME280;30662;51.210;7.656;2023-04-25T04:33:51;149844.22;;;4.13;100.00
44926;BME280;30662;51.210;7.656;2023-04-25T04:36:18;149853.00;;;4.17;100.00
44926;BME280;30662;51.210;7.656;2023-04-25T04:38:48;149879.47;;;4.28;100.00
44926;BME280;30662;51.210;7.656;2023-04-25T04:41:14;149873.16;;;4.25;100.00
44926;BME280;30662;51.210;7.656;2023-04-25T04:43:40;149854.25;;;4.18;100.00
44926;BME280;30662;51.210;7.656;2023-04-25T04:46:07;149869.38;;;4.24;100.00
44926;BME280;30662;51.210;7.656;2023-04-25T04:48:33;149845.47;;;4.14;100.00
44926;BME280;30662;51.210;7.656;2023-04-25T04:51:00;149846.72;;;4.14;100.00
44926;BME280;30662;51.210;7.656;2023-04-25T04:53:26;149834.09;;;4.09;100.00
44926;BME280;30662;51.210;7.656;2023-04-25T04:55:52;149849.22;;;4.15;100.00
44926;BME280;30662;51.210;7.656;2023-04-25T04:58:18;149860.59;;;4.20;100.00
44926;BME280;30662;51.210;7.656;2023-04-25T05:00:45;149869.38;;;4.24;100.00
44926;BME280;30662;51.210;7.656;2023-04-25T05:03:10;149864.34;;;4.22;100.00
44926;BME280;30662;51.210;7.656;2023-04-25T05:05:37;149893.31;;;4.33;100.00
44926;BME280;30662;51.210;7.656;2023-04-25T05:08:06;149889.53;;;4.32;100.00
44926;BME280;30662;51.210;7.656;2023-04-25T05:10:31;149878.19;;;4.27;100.00
44926;BME280;30662;51.210;7.656;2023-04-25T05:12:57;149874.41;;;4.26;100.00
44926;BME280;30662;51.210;7.656;2023-04-25T05:15:23;149928.59;;;4.48;100.00
44926;BME280;30662;51.210;7.656;2023-04-25T05:17:49;149956.34;;;4.59;100.00
44926;BME280;30662;51.210;7.656;2023-04-25T05:20:15;149912.19;;;4.41;100.00
44926;BME280;30662;51.210;7.656;2023-04-25T05:22:41;149897.13;;;4.35;100.00
44926;BME280;30662;51.210;7.656;2023-04-25T05:25:08;149918.53;;;4.43;100.00
44926;BME280;30662;51.210;7.656;2023-04-25T05:27:34;149941.19;;;4.53;100.00
44926;BME280;30662;51.210;7.656;2023-04-25T05:30:00;149939.94;;;4.52;100.00
44926;BME280;30662;51.210;7.656;2023-04-25T05:32:26;149907.19;;;4.39;100.00
44926;BME280;30662;51.210;7.656;2023-04-25T05:34:52;149904.66;;;4.38;100.00
44926;BME280;30662;51.210;7.656;2023-04-25T05:37:18;149909.69;;;4.40;100.00
44926;BME280;30662;51.210;7.656;2023-04-25T05:39:44;149926.06;;;4.47;100.00
44926;BME280;30662;51.210;7.656;2023-04-25T05:42:10;149887.03;;;4.31;100.00
44926;BME280;30662;51.210;7.656;2023-04-25T05:44:36;149840.38;;;4.12;100.00
44926;BME280;30662;51.210;7.656;2023-04-25T05:47:01;149812.69;;;4.01;100.00
44926;BME280;30662;51.210;7.656;2023-04-25T05:49:28;149830.34;;;4.08;100.00
44926;BME280;30662;51.210;7.656;2023-04-25T05:51:54;149824.00;;;4.05;100.00
44926;BME280;30662;51.210;7.656;2023-04-25T05:54:20;149840.38;;;4.12;100.00
44926;BME280;30662;51.210;7.656;2023-04-25T05:56:46;149855.50;;;4.18;100.00
44926;BME280;30662;51.210;7.656;2023-04-25T05:59:11;149839.13;;;4.11;100.00
44926;BME280;30662;51.210;7.656;2023-04-25T06:01:37;149800.09;;;3.96;100.00
44926;BME280;30662;51.210;7.656;2023-04-25T06:04:03;149825.31;;;4.06;100.00
44926;BME280;30662;51.210;7.656;2023-04-25T06:06:30;149808.94;;;3.99;100.00
44926;BME280;30662;51.210;7.656;2023-04-25T06:08:56;149807.69;;;3.99;100.00
44926;BME280;30662;51.210;7.656;2023-04-25T06:11:22;149811.44;;;4.00;100.00
44926;BME280;30662;51.210;7.656;2023-04-25T06:13:47;149831.59;;;4.08;100.00
44926;BME280;30662;51.210;7.656;2023-04-25T06:16:14;149856.75;;;4.19;100.00
44926;BME280;30662;51.210;7.656;2023-04-25T06:18:40;149835.34;;;4.10;100.00
44926;BME280;30662;51.210;7.656;2023-04-25T06:21:06;149824.00;;;4.05;100.00
44926;BME280;30662;51.210;7.656;2023-04-25T06:23:32;149821.50;;;4.04;100.00
44926;BME280;30662;51.210;7.656;2023-04-25T06:25:57;149824.00;;;4.05;100.00
44926;BME280;30662;51.210;7.656;2023-04-25T06:28:23;149822.75;;;4.05;100.00
44926;BME280;30662;51.210;7.656;2023-04-25T06:30:50;149847.97;;;4.15;100.00
44926;BME280;30662;51.210;7.656;2023-04-25T06:33:16;149844.22;;;4.13;100.00
44926;BME280;30662;51.210;7.656;2023-04-25T06:35:42;149870.63;;;4.24;100.00
44926;BME280;30662;51.210;7.656;2023-04-25T06:38:08;149918.53;;;4.43;100.00
44926;BME280;30662;51.210;7.656;2023-04-25T06:40:34;149979.00;;;4.68;100.00
44926;BME280;30662;51.210;7.656;2023-04-25T06:43:00;149929.84;;;4.48;100.00
44926;BME280;30662;51.210;7.656;2023-04-25T06:45:25;149965.13;;;4.62;100.00
44926;BME280;30662;51.210;7.656;2023-04-25T06:47:51;149950.06;;;4.56;100.00
44926;BME280;30662;51.210;7.656;2023-04-25T06:50:17;149943.72;;;4.54;100.00
44926;BME280;30662;51.210;7.656;2023-04-25T06:52:43;149921.03;;;4.45;100.00
44926;BME280;30662;51.210;7.656;2023-04-25T06:55:09;149937.44;;;4.51;100.00
44926;BME280;30662;51.210;7.656;2023-04-25T06:57:35;149947.47;;;4.55;100.00
44926;BME280;30662;51.210;7.656;2023-04-25T07:00:01;149958.84;;;4.60;100.00
44926;BME280;30662;51.210;7.656;2023-04-25T07:02:30;149966.38;;;4.63;100.00
44926;BME280;30662;51.210;7.656;2023-04-25T07:04:56;149992.88;;;4.74;100.00
44926;BME280;30662;51.210;7.656;2023-04-25T07:07:26;149979.00;;;4.68;100.00
44926;BME280;30662;51.210;7.656;2023-04-25T07:09:51;150053.38;;;4.98;100.00
44926;BME280;30662;51.210;7.656;2023-04-25T07:12:17;150067.25;;;5.04;100.00
44926;BME280;30662;51.210;7.656;2023-04-25T07:14:43;150091.19;;;5.13;100.00
44926;BME280;30662;51.210;7.656;2023-04-25T07:17:09;150103.81;;;5.18;100.00
44926;BME280;30662;51.210;7.656;2023-04-25T07:19:35;150144.13;;;5.35;100.00
44926;BME280;30662;51.210;7.656;2023-04-25T07:22:02;150175.69;;;5.47;100.00
44926;BME280;30662;51.210;7.656;2023-04-25T07:24:28;150131.56;;;5.30;100.00
44926;BME280;30662;51.210;7.656;2023-04-25T07:26:54;150180.72;;;5.49;100.00
44926;BME280;30662;51.210;7.656;2023-04-25T07:29:20;150160.53;;;5.41;100.00
44926;BME280;30662;51.210;7.656;2023-04-25T07:31:45;150149.22;;;5.37;100.00
44926;BME280;30662;51.210;7.656;2023-04-25T07:34:11;150165.63;;;5.43;100.00
44926;BME280;30662;51.210;7.656;2023-04-25T07:36:37;150144.13;;;5.35;100.00
44926;BME280;30662;51.210;7.656;2023-04-25T07:39:03;150144.13;;;5.35;100.00
44926;BME280;30662;51.210;7.656;2023-04-25T07:41:29;150115.16;;;5.23;100.00
44926;BME280;30662;51.210;7.656;2023-04-25T07:43:55;150141.63;;;5.34;100.00
44926;BME280;30662;51.210;7.656;2023-04-25T07:46:20;150125.22;;;5.27;100.00
44926;BME280;30662;51.210;7.656;2023-04-25T07:48:46;150077.34;;;5.08;100.00
44926;BME280;30662;51.210;7.656;2023-04-25T07:51:12;150081.13;;;5.09;100.00
44926;BME280;30662;51.210;7.656;2023-04-25T07:53:38;150089.91;;;5.13;100.00
44926;BME280;30662;51.210;7.656;2023-04-25T07:56:05;150067.25;;;5.04;100.00
44926;BME280;30662;51.210;7.656;2023-04-25T07:58:31;150087.41;;;5.12;100.00
44926;BME280;30662;51.210;7.656;2023-04-25T08:00:57;150073.53;;;5.06;100.00
44926;BME280;30662;51.210;7.656;2023-04-25T08:03:22;150101.28;;;5.17;100.00
44926;BME280;30662;51.210;7.656;2023-04-25T08:05:49;150111.41;;;5.21;100.00
44926;BME280;30662;51.210;7.656;2023-04-25T08:08:15;150147.97;;;5.36;100.00
44926;BME280;30662;51.210;7.656;2023-04-25T08:10:41;150146.66;;;5.36;100.00
44926;BME280;30662;51.210;7.656;2023-04-25T08:13:07;150192.06;;;5.54;100.00
44926;BME280;30662;51.210;7.656;2023-04-25T08:15:35;150251.34;;;5.78;100.00
44926;BME280;30662;51.210;7.656;2023-04-25T08:18:01;150275.34;;;5.88;100.00
44926;BME280;30662;51.210;7.656;2023-04-25T08:20:27;150237.50;;;5.72;100.00
44926;BME280;30662;51.210;7.656;2023-04-25T08:22:53;150305.63;;;6.00;100.00
44926;BME280;30662;51.210;7.656;2023-04-25T08:25:19;150256.41;;;5.80;100.00
44926;BME280;30662;51.210;7.656;2023-04-25T08:27:44;150253.84;;;5.79;100.00
44926;BME280;30662;51.210;7.656;2023-04-25T08:30:11;150233.69;;;5.71;100.00
44926;BME280;30662;51.210;7.656;2023-04-25T08:32:37;150168.13;;;5.44;100.00
44926;BME280;30662;51.210;7.656;2023-04-25T08:35:06;150173.16;;;5.46;100.00
44926;BME280;30662;51.210;7.656;2023-04-25T08:37:32;150194.59;;;5.55;100.00
44926;BME280;30662;51.210;7.656;2023-04-25T08:39:58;150147.97;;;5.36;100.00
44926;BME280;30662;51.210;7.656;2023-04-25T08:42:24;150125.22;;;5.27;100.00
44926;BME280;30662;51.210;7.656;2023-04-25T08:44:50;150185.78;;;5.51;100.00
44926;BME280;30662;51.210;7.656;2023-04-25T08:47:21;150224.88;;;5.67;100.00
44926;BME280;30662;51.210;7.656;2023-04-25T08:49:49;150245.06;;;5.75;100.00
44926;BME280;30662;51.210;7.656;2023-04-25T08:52:22;150211.00;;;5.62;100.00
44926;BME280;30662;51.210;7.656;2023-04-25T08:54:48;150189.56;;;5.53;100.00
44926;BME280;30662;51.210;7.656;2023-04-25T08:57:15;150192.06;;;5.54;100.00
44926;BME280;30662;51.210;7.656;2023-04-25T08:59:41;150216.03;;;5.64;100.00
44926;BME280;30662;51.210;7.656;2023-04-25T09:02:11;150192.06;;;5.54;100.00
44926;BME280;30662;51.210;7.656;2023-04-25T09:04:43;150176.94;;;5.48;100.00
44926;BME280;30662;51.210;7.656;2023-04-25T09:07:09;150224.88;;;5.67;100.00
44926;BME280;30662;51.210;7.656;2023-04-25T09:09:35;150253.84;;;5.79;100.00
44926;BME280;30662;51.210;7.656;2023-04-25T09:12:01;150270.25;;;5.86;100.00
44926;BME280;30662;51.210;7.656;2023-04-25T09:14:27;150311.97;;;6.02;100.00
44926;BME280;30662;51.210;7.656;2023-04-25T09:19:28;150428.03;;;6.49;99.51
44926;BME280;30662;51.210;7.656;2023-04-25T09:22:06;150547.97;;;6.98;95.00
44926;BME280;30662;51.210;7.656;2023-04-25T09:24:34;150529.03;;;6.90;94.21
44926;BME280;30662;51.210;7.656;2023-04-25T09:27:12;150491.19;;;6.75;92.74
44926;BME280;30662;51.210;7.656;2023-04-25T09:29:40;150396.47;;;6.36;97.16
44926;BME280;30662;51.210;7.656;2023-04-25T09:32:18;150304.38;;;5.99;99.51
44926;BME280;30662;51.210;7.656;2023-04-25T09:34:49;150330.91;;;6.10;100.00
44926;BME280;30662;51.210;7.656;2023-04-25T09:37:21;150386.41;;;6.32;100.00
44926;BME280;30662;51.210;7.656;2023-04-25T09:39:52;150420.50;;;6.46;100.00
44926;BME280;30662;51.210;7.656;2023-04-25T09:42:22;150472.25;;;6.67;97.92
44926;BME280;30662;51.210;7.656;2023-04-25T09:44:47;150510.09;;;6.82;95.39
44926;BME280;30662;51.210;7.656;2023-04-25T09:47:15;150477.28;;;6.69;90.93
44926;BME280;30662;51.210;7.656;2023-04-25T09:49:42;150459.59;;;6.62;89.50
44926;BME280;30662;51.210;7.656;2023-04-25T09:52:19;150400.31;;;6.38;92.61
44926;BME280;30662;51.210;7.656;2023-04-25T09:54:47;150335.94;;;6.12;94.93
44926;BME280;30662;51.210;7.656;2023-04-25T09:59:48;150317.00;;;6.04;98.61
44926;BME280;30662;51.210;7.656;2023-04-25T10:02:20;150315.75;;;6.04;95.11
44926;BME280;30662;51.210;7.656;2023-04-25T10:04:49;150391.44;;;6.34;93.83
44926;BME280;30662;51.210;7.656;2023-04-25T10:07:18;150534.06;;;6.92;87.88
44926;BME280;30662;51.210;7.656;2023-04-25T10:09:47;150664.13;;;7.44;84.79
44926;BME280;30662;51.210;7.656;2023-04-25T10:12:14;150659.09;;;7.42;78.45
44926;BME280;30662;51.210;7.656;2023-04-25T10:14:40;150718.44;;;7.66;78.60
44926;BME280;30662;51.210;7.656;2023-04-25T10:17:07;150755.06;;;7.81;79.42
44926;BME280;30662;51.210;7.656;2023-04-25T10:19:34;150680.56;;;7.51;81.22
44926;BME280;30662;51.210;7.656;2023-04-25T10:22:04;150608.56;;;7.22;80.70
44926;BME280;30662;51.210;7.656;2023-04-25T10:24:31;150529.03;;;6.90;77.90
44926;BME280;30662;51.210;7.656;2023-04-25T10:26:58;150449.50;;;6.58;71.20
44926;BME280;30662;51.210;7.656;2023-04-25T10:29:25;150477.28;;;6.69;65.62
44926;BME280;30662;51.210;7.656;2023-04-25T10:31:52;150580.81;;;7.11;64.14
44926;BME280;30662;51.210;7.656;2023-04-25T10:34:18;150669.22;;;7.46;61.96
44926;BME280;30662;51.210;7.656;2023-04-25T10:36:51;150846.06;;;8.18;61.72
44926;BME280;30662;51.210;7.656;2023-04-25T10:39:26;150908.06;;;8.43;58.84
44926;BME280;30662;51.210;7.656;2023-04-25T10:41:57;150967.44;;;8.67;60.00
44926;BME280;30662;51.210;7.656;2023-04-25T10:44:27;151020.56;;;8.88;60.75
44926;BME280;30662;51.210;7.656;2023-04-25T10:46:58;151079.97;;;9.12;60.81
44926;BME280;30662;51.210;7.656;2023-04-25T10:49:41;151181.16;;;9.53;59.08
44926;BME280;30662;51.210;7.656;2023-04-25T10:52:17;151400.13;;;10.41;57.05
44926;BME280;30662;51.210;7.656;2023-04-25T10:54:55;151314.00;;;10.06;53.67
44926;BME280;30662;51.210;7.656;2023-04-25T10:57:43;151243.19;;;9.78;55.65
44926;BME280;30662;51.210;7.656;2023-04-25T11:00:15;151095.16;;;9.18;58.03
44926;BME280;30662;51.210;7.656;2023-04-25T11:02:51;150969.97;;;8.68;59.83
44926;BME280;30662;51.210;7.656;2023-04-25T11:05:35;150842.28;;;8.16;62.12
44926;BME280;30662;51.210;7.656;2023-04-25T11:08:27;150775.28;;;7.89;64.26
44926;BME280;30662;51.210;7.656;2023-04-25T11:10:59;150681.81;;;7.52;65.51
44926;BME280;30662;51.210;7.656;2023-04-25T11:13:29;150784.16;;;7.93;66.00
44926;BME280;30662;51.210;7.656;2023-04-25T11:15:55;150867.56;;;8.26;63.60
44926;BME280;30662;51.210;7.656;2023-04-25T11:18:41;150805.63;;;8.01;60.54
44926;BME280;30662;51.210;7.656;2023-04-25T11:21:07;150839.75;;;8.15;61.99
44926;BME280;30662;51.210;7.656;2023-04-25T11:23:33;150774.03;;;7.89;63.15
44926;BME280;30662;51.210;7.656;2023-04-25T11:26:00;150723.53;;;7.68;62.39
44926;BME280;30662;51.210;7.656;2023-04-25T11:28:27;150686.91;;;7.54;62.47
44926;BME280;30662;51.210;7.656;2023-04-25T11:30:53;150646.44;;;7.37;63.63
44926;BME280;30662;51.210;7.656;2023-04-25T11:33:28;150637.63;;;7.34;65.62
44926;BME280;30662;51.210;7.656;2023-04-25T11:35:54;150691.94;;;7.56;65.34
44926;BME280;30662;51.210;7.656;2023-04-25T11:38:24;150800.59;;;7.99;64.98
44926;BME280;30662;51.210;7.656;2023-04-25T11:40:54;151024.34;;;8.90;65.16
44926;BME280;30662;51.210;7.656;2023-04-25T11:43:21;151279.88;;;9.92;60.00
44926;BME280;30662;51.210;7.656;2023-04-25T11:45:51;151253.28;;;9.82;55.53
44926;BME280;30662;51.210;7.656;2023-04-25T11:48:18;151211.53;;;9.65;53.01
44926;BME280;30662;51.210;7.656;2023-04-25T11:50:47;151061.00;;;9.04;53.61
44926;BME280;30662;51.210;7.656;2023-04-25T11:53:13;151000.31;;;8.80;54.63
44926;BME280;30662;51.210;7.656;2023-04-25T11:55:39;151025.59;;;8.90;55.04
44926;BME280;30662;51.210;7.656;2023-04-25T11:58:05;151050.91;;;9.00;55.80
44926;BME280;30662;51.210;7.656;2023-04-25T12:00:32;151020.56;;;8.88;55.44
44926;BME280;30662;51.210;7.656;2023-04-25T12:02:57;151002.84;;;8.81;55.13
44926;BME280;30662;51.210;7.656;2023-04-25T12:05:26;151040.78;;;8.96;55.80
44926;BME280;30662;51.210;7.656;2023-04-25T12:08:11;151187.47;;;9.55;53.54
44926;BME280;30662;51.210;7.656;2023-04-25T12:10:42;151330.44;;;10.13;53.26
44926;BME280;30662;51.210;7.656;2023-04-25T12:13:19;151241.88;;;9.77;51.91
44926;BME280;30662;51.210;7.656;2023-04-25T12:15:45;151104.03;;;9.22;52.53
44926;BME280;30662;51.210;7.656;2023-04-25T12:18:11;150952.28;;;8.61;54.52
44926;BME280;30662;51.210;7.656;2023-04-25T12:20:37;150828.34;;;8.11;57.71
44926;BME280;30662;51.210;7.656;2023-04-25T12:23:05;150817.00;;;8.06;58.83
44926;BME280;30662;51.210;7.656;2023-04-25T12:25:41;150753.81;;;7.81;65.30
44926;BME280;30662;51.210;7.656;2023-04-25T12:28:14;150739.97;;;7.75;67.04
44926;BME280;30662;51.210;7.656;2023-04-25T12:31:00;150776.59;;;7.90;68.74
44926;BME280;30662;51.210;7.656;2023-04-25T12:33:29;150781.63;;;7.92;68.80
44926;BME280;30662;51.210;7.656;2023-04-25T12:35:56;150859.97;;;8.23;70.91
44926;BME280;30662;51.210;7.656;2023-04-25T12:38:30;150969.97;;;8.68;67.14
44926;BME280;30662;51.210;7.656;2023-04-25T12:40:57;151206.44;;;9.63;64.60
44926;BME280;30662;51.210;7.656;2023-04-25T12:43:23;151434.31;;;10.55;59.82
44926;BME280;30662;51.210;7.656;2023-04-25T12:45:50;151481.16;;;10.73;54.56
44926;BME280;30662;51.210;7.656;2023-04-25T12:48:17;151512.78;;;10.86;52.40
44926;BME280;30662;51.210;7.656;2023-04-25T12:50:43;151668.56;;;11.49;50.37
44926;BME280;30662;51.210;7.656;2023-04-25T12:53:10;151728.09;;;11.73;48.76
44926;BME280;30662;51.210;7.656;2023-04-25T12:55:37;151626.78;;;11.32;45.48
44926;BME280;30662;51.210;7.656;2023-04-25T12:58:03;151706.56;;;11.64;42.08